Time;durP1;ratioP1;P1;durP2;ratioP2;P2;SDS_P1;SDS_P2;PMS_P1;PMS_P2;Temp;Humidity;BMP_temperature;BMP_pressure;BME280_temperature;BME280_humidity;BME280_pressure;Samples;Min_cycle;Max_cycle;Signal;HPM_P1;HPM_P2
2022/09/06 00:00:36;;;;;;;7.60;2.43;;;;;;;;;;3367586;42;20102;-64
2022/09/06 00:03:02;;;;;;;10.20;2.45;;;;;;;;;;3365464;42;20095;-63
2022/09/06 00:05:28;;;;;;;8.82;2.45;;;;;;;;;;3365739;42;20178;-63
2022/09/06 00:07:56;;;;;;;6.63;2.63;;;;;;;;;;3367087;42;20166;-63
2022/09/06 00:10:22;;;;;;;9.90;2.55;;;;;;;;;;3365512;42;20099;-64
2022/09/06 00:12:48;;;;;;;6.50;2.07;;;;;;;;;;3367008;42;20518;-64
2022/09/06 00:15:14;;;;;;;6.25;2.50;;;;;;;;;;3365435;42;20114;-62
2022/09/06 00:17:40;;;;;;;8.82;2.20;;;;;;;;;;3366775;42;20102;-64
2022/09/06 00:20:09;;;;;;;6.50;2.10;;;;;;;;;;3366570;42;20096;-63
2022/09/06 00:22:36;;;;;;;6.68;2.63;;;;;;;;;;3366772;42;20588;-64
2022/09/06 00:25:04;;;;;;;6.18;2.30;;;;;;;;;;3365413;42;20100;-63
2022/09/06 00:27:30;;;;;;;5.80;2.20;;;;;;;;;;3366679;42;20095;-63
2022/09/06 00:29:56;;;;;;;6.25;2.28;;;;;;;;;;3365530;42;20622;-62
2022/09/06 00:32:22;;;;;;;5.97;2.10;;;;;;;;;;3366744;42;20107;-63
2022/09/06 00:34:48;;;;;;;6.85;2.20;;;;;;;;;;3365695;42;20118;-61
2022/09/06 00:37:14;;;;;;;6.88;2.22;;;;;;;;;;3367454;42;20087;-62
2022/09/06 00:39:40;;;;;;;6.87;2.53;;;;;;;;;;3367579;42;20131;-62
2022/09/06 00:42:10;;;;;;;5.97;1.98;;;;;;;;;;3366496;42;20611;-63
2022/09/06 00:44:36;;;;;;;5.93;2.10;;;;;;;;;;3366601;42;20092;-63
2022/09/06 00:47:02;;;;;;;6.13;1.90;;;;;;;;;;3366275;42;20521;-62
2022/09/06 00:49:33;;;;;;;6.57;2.30;;;;;;;;;;3364997;42;20143;-62
2022/09/06 00:52:05;;;;;;;6.00;2.27;;;;;;;;;;3365082;42;20732;-63
2022/09/06 00:54:31;;;;;;;7.03;2.22;;;;;;;;;;3357973;42;20189;-64
2022/09/06 00:56:57;;;;;;;5.95;2.13;;;;;;;;;;3365291;42;20095;-62
2022/09/06 00:59:30;;;;;;;7.00;2.30;;;;;;;;;;3366376;42;20102;-63
2022/09/06 01:01:57;;;;;;;5.68;2.20;;;;;;;;;;3364818;42;20111;-64
2022/09/06 01:04:23;;;;;;;6.03;2.10;;;;;;;;;;3366295;42;20079;-65
2022/09/06 01:06:56;;;;;;;5.28;1.90;;;;;;;;;;3365022;42;20673;-63
2022/09/06 01:09:45;;;;;;;5.82;2.10;;;;;;;;;;3364734;42;20135;-62
2022/09/06 01:12:32;;;;;;;6.22;2.10;;;;;;;;;;3364782;42;20110;-63
2022/09/06 01:15:04;;;;;;;10.15;2.17;;;;;;;;;;3366073;42;20083;-62
2022/09/06 01:17:55;;;;;;;6.83;2.27;;;;;;;;;;3366313;42;20084;-64
2022/09/06 01:20:40;;;;;;;7.57;2.17;;;;;;;;;;3362222;42;20103;-64
2022/09/06 01:23:27;;;;;;;6.32;2.75;;;;;;;;;;3365972;42;20091;-63
2022/09/06 01:26:31;;;;;;;6.22;2.20;;;;;;;;;;3367053;42;20139;-64
2022/09/06 01:28:57;;;;;;;5.90;2.15;;;;;;;;;;3351871;42;20603;-62
2022/09/06 01:31:34;;;;;;;7.43;2.50;;;;;;;;;;3365682;42;20095;-63
2022/09/06 01:34:06;;;;;;;7.63;2.10;;;;;;;;;;3358739;42;20118;-61
2022/09/06 01:36:39;;;;;;;5.90;2.30;;;;;;;;;;3364796;42;20166;-64
2022/09/06 01:39:05;;;;;;;7.95;2.28;;;;;;;;;;3364596;42;20094;-64
2022/09/06 01:41:31;;;;;;;8.87;2.57;;;;;;;;;;3366057;42;20084;-64
2022/09/06 01:43:57;;;;;;;6.80;2.30;;;;;;;;;;3363425;42;20148;-64
2022/09/06 01:46:29;;;;;;;6.82;2.00;;;;;;;;;;3361257;42;20095;-63
2022/09/06 01:49:20;;;;;;;6.68;2.33;;;;;;;;;;3365170;42;20092;-62
2022/09/06 01:51:54;;;;;;;7.78;2.40;;;;;;;;;;3357933;42;20096;-64
2022/09/06 01:55:01;;;;;;;5.30;2.00;;;;;;;;;;3364531;42;20165;-63
2022/09/06 01:58:15;;;;;;;5.57;2.15;;;;;;;;;;3367307;42;20098;-63
2022/09/06 02:01:25;;;;;;;5.63;2.20;;;;;;;;;;3358401;42;20181;-62
2022/09/06 02:04:01;;;;;;;6.18;1.80;;;;;;;;;;3338955;42;20136;-63
2022/09/06 02:06:29;;;;;;;5.38;1.92;;;;;;;;;;3340624;42;20129;-64
2022/09/06 02:09:04;;;;;;;5.60;2.00;;;;;;;;;;3351161;42;20110;-63
2022/09/06 02:11:32;;;;;;;6.70;2.45;;;;;;;;;;3367280;42;20549;-63
2022/09/06 02:14:03;;;;;;;5.75;2.00;;;;;;;;;;3367167;42;20561;-62
2022/09/06 02:16:29;;;;;;;7.63;2.22;;;;;;;;;;3367558;42;20102;-63
2022/09/06 02:18:59;;;;;;;6.10;2.17;;;;;;;;;;3367547;42;20509;-64
2022/09/06 02:21:31;;;;;;;7.70;2.10;;;;;;;;;;3367442;42;20613;-65
2022/09/06 02:23:59;;;;;;;6.10;2.40;;;;;;;;;;3367499;42;20598;-62
2022/09/06 02:26:26;;;;;;;6.25;2.30;;;;;;;;;;3364140;42;20100;-64
2022/09/06 02:28:52;;;;;;;8.40;2.10;;;;;;;;;;3367701;42;20155;-64
2022/09/06 02:31:30;;;;;;;5.37;2.03;;;;;;;;;;3366983;42;20154;-65
2022/09/06 02:33:56;;;;;;;6.75;2.13;;;;;;;;;;3358046;42;20562;-63
2022/09/06 02:36:22;;;;;;;6.20;2.38;;;;;;;;;;3359949;42;20095;-63
2022/09/06 02:38:48;;;;;;;7.28;2.30;;;;;;;;;;3365992;42;20172;-62
2022/09/06 02:41:17;;;;;;;6.03;1.90;;;;;;;;;;3368535;42;20096;-62
2022/09/06 02:43:43;;;;;;;5.40;1.95;;;;;;;;;;3367422;42;20157;-61
2022/09/06 02:46:09;;;;;;;6.63;2.10;;;;;;;;;;3369188;42;20103;-61
2022/09/06 02:48:35;;;;;;;6.00;2.10;;;;;;;;;;3369199;42;20118;-63
2022/09/06 02:51:02;;;;;;;5.60;2.20;;;;;;;;;;3368515;42;20143;-62
2022/09/06 02:53:28;;;;;;;7.20;2.77;;;;;;;;;;3368703;42;20183;-63
2022/09/06 02:55:56;;;;;;;6.78;2.25;;;;;;;;;;3369263;42;20088;-62
2022/09/06 02:58:23;;;;;;;5.30;1.95;;;;;;;;;;3368823;42;20612;-64
2022/09/06 03:00:52;;;;;;;6.10;2.10;;;;;;;;;;3367618;42;20096;-64
2022/09/06 03:03:21;;;;;;;6.03;2.20;;;;;;;;;;3368092;42;20090;-62
2022/09/06 03:05:48;;;;;;;8.73;2.43;;;;;;;;;;3365810;42;20182;-63
2022/09/06 03:08:15;;;;;;;5.90;2.00;;;;;;;;;;3365591;42;20096;-62
2022/09/06 03:10:48;;;;;;;8.88;2.90;;;;;;;;;;3367195;42;20177;-63
2022/09/06 03:13:14;;;;;;;8.15;2.40;;;;;;;;;;3365663;42;20098;-62
2022/09/06 03:15:40;;;;;;;10.32;2.70;;;;;;;;;;3367125;42;20165;-64
2022/09/06 03:18:06;;;;;;;6.87;2.67;;;;;;;;;;3368175;42;20079;-64
2022/09/06 03:20:32;;;;;;;6.20;2.28;;;;;;;;;;3365825;42;20118;-66
2022/09/06 03:22:58;;;;;;;6.13;2.15;;;;;;;;;;3360396;42;20122;-63
2022/09/06 03:25:24;;;;;;;7.55;2.30;;;;;;;;;;3361984;42;20159;-64
2022/09/06 03:27:50;;;;;;;5.70;2.33;;;;;;;;;;3359918;42;20574;-63
2022/09/06 03:30:17;;;;;;;10.27;2.75;;;;;;;;;;3361774;42;20088;-63
2022/09/06 03:32:43;;;;;;;6.90;2.30;;;;;;;;;;3361002;42;20092;-63
2022/09/06 03:35:10;;;;;;;6.50;2.30;;;;;;;;;;3366672;42;20084;-63
2022/09/06 03:37:36;;;;;;;6.35;2.70;;;;;;;;;;3365478;42;20227;-64
2022/09/06 03:40:03;;;;;;;6.50;2.40;;;;;;;;;;3364684;42;20166;-64
2022/09/06 03:42:29;;;;;;;7.45;3.00;;;;;;;;;;3362726;42;20558;-63
2022/09/06 03:44:55;;;;;;;7.68;2.40;;;;;;;;;;3366536;42;20570;-62
2022/09/06 03:47:21;;;;;;;5.90;2.10;;;;;;;;;;3366796;42;20102;-62
2022/09/06 03:49:47;;;;;;;5.83;2.10;;;;;;;;;;3367345;42;20640;-67
2022/09/06 03:52:13;;;;;;;8.05;2.65;;;;;;;;;;3366339;42;20593;-61
2022/09/06 03:54:39;;;;;;;7.53;2.75;;;;;;;;;;3365266;42;20104;-62
2022/09/06 03:57:05;;;;;;;7.25;2.80;;;;;;;;;;3366507;42;20096;-63
2022/09/06 03:59:31;;;;;;;5.90;2.40;;;;;;;;;;3363964;42;20502;-63
2022/09/06 04:01:57;;;;;;;7.60;2.90;;;;;;;;;;3363334;42;20598;-61
2022/09/06 04:04:23;;;;;;;8.20;3.20;;;;;;;;;;3359253;42;20119;-63
2022/09/06 04:06:49;;;;;;;9.05;3.60;;;;;;;;;;3362613;42;20102;-64
2022/09/06 04:09:15;;;;;;;9.63;3.38;;;;;;;;;;3363374;42;20092;-63
2022/09/06 04:11:41;;;;;;;10.73;3.40;;;;;;;;;;3362714;42;20144;-62
2022/09/06 04:14:07;;;;;;;8.95;3.30;;;;;;;;;;3361269;42;20135;-63
2022/09/06 04:16:33;;;;;;;7.40;3.20;;;;;;;;;;3369395;42;20103;-62
2022/09/06 04:19:00;;;;;;;16.00;5.40;;;;;;;;;;3361514;42;20100;-63
2022/09/06 04:21:27;;;;;;;13.57;4.50;;;;;;;;;;3360722;42;20084;-64
2022/09/06 04:23:52;;;;;;;11.48;4.25;;;;;;;;;;3360767;42;20080;-65
2022/09/06 04:26:18;;;;;;;7.57;3.38;;;;;;;;;;3366445;42;20096;-62
2022/09/06 04:28:44;;;;;;;8.80;3.43;;;;;;;;;;3366427;42;20083;-65
2022/09/06 04:31:10;;;;;;;10.30;3.20;;;;;;;;;;3366346;42;20841;-64
2022/09/06 04:33:37;;;;;;;8.15;2.78;;;;;;;;;;3366291;42;20095;-65
2022/09/06 04:36:07;;;;;;;6.90;2.60;;;;;;;;;;3365796;42;20096;-63
2022/09/06 04:38:35;;;;;;;7.50;2.40;;;;;;;;;;3361098;42;20115;-66
2022/09/06 04:41:01;;;;;;;6.70;2.47;;;;;;;;;;3358583;42;20092;-63
2022/09/06 04:43:27;;;;;;;6.70;2.30;;;;;;;;;;3350074;42;20084;-64
2022/09/06 04:45:53;;;;;;;8.20;2.38;;;;;;;;;;3364422;42;20107;-64
2022/09/06 04:48:19;;;;;;;6.95;2.53;;;;;;;;;;3365933;42;20570;-64
2022/09/06 04:50:44;;;;;;;13.23;2.60;;;;;;;;;;3364709;42;20182;-65
2022/09/06 04:53:10;;;;;;;8.07;2.60;;;;;;;;;;3364597;42;20249;-64
2022/09/06 04:55:36;;;;;;;10.65;2.90;;;;;;;;;;3366328;42;20095;-65
2022/09/06 04:58:03;;;;;;;6.85;2.50;;;;;;;;;;3366050;42;20084;-64
2022/09/06 05:00:30;;;;;;;6.63;2.72;;;;;;;;;;3365980;42;20096;-64
2022/09/06 05:02:56;;;;;;;6.23;2.40;;;;;;;;;;3364989;42;20127;-63
2022/09/06 05:05:22;;;;;;;7.13;2.40;;;;;;;;;;3366077;42;20079;-63
2022/09/06 05:07:55;;;;;;;11.20;2.13;;;;;;;;;;3366275;42;20159;-63
2022/09/06 05:10:22;;;;;;;4.95;1.92;;;;;;;;;;3362096;42;20541;-64
2022/09/06 05:12:51;;;;;;;6.32;1.95;;;;;;;;;;3359507;42;20593;-63
2022/09/06 05:15:18;;;;;;;6.17;1.90;;;;;;;;;;3361188;42;21149;-64
2022/09/06 05:17:44;;;;;;;6.88;1.90;;;;;;;;;;3361013;42;20166;-64
2022/09/06 05:20:10;;;;;;;5.43;1.85;;;;;;;;;;3359295;42;20088;-64
2022/09/06 05:22:36;;;;;;;5.75;1.92;;;;;;;;;;3361274;42;20076;-63
2022/09/06 05:25:02;;;;;;;6.30;2.00;;;;;;;;;;3361182;42;20084;-63
2022/09/06 05:27:28;;;;;;;4.37;1.40;;;;;;;;;;3362570;42;20100;-63
2022/09/06 05:29:54;;;;;;;6.05;1.88;;;;;;;;;;3362975;42;20093;-63
2022/09/06 05:32:20;;;;;;;7.55;2.30;;;;;;;;;;3365848;42;20095;-64
2022/09/06 05:34:46;;;;;;;5.53;1.90;;;;;;;;;;3365516;42;20466;-64
2022/09/06 05:37:12;;;;;;;6.00;1.90;;;;;;;;;;3365910;42;20186;-65
2022/09/06 05:39:38;;;;;;;7.13;2.00;;;;;;;;;;3364465;42;20150;-64
2022/09/06 05:42:05;;;;;;;5.38;2.08;;;;;;;;;;3365307;42;20152;-62
2022/09/06 05:44:33;;;;;;;6.73;1.93;;;;;;;;;;3361692;42;20084;-63
2022/09/06 05:46:59;;;;;;;7.05;2.10;;;;;;;;;;3360864;42;20648;-63
2022/09/06 05:49:25;;;;;;;10.52;2.45;;;;;;;;;;3357078;42;20100;-64
2022/09/06 05:51:51;;;;;;;6.90;2.15;;;;;;;;;;3362793;42;20092;-64
2022/09/06 05:54:17;;;;;;;6.50;2.00;;;;;;;;;;3359757;42;20475;-65
2022/09/06 05:56:43;;;;;;;5.75;2.00;;;;;;;;;;3362113;42;20163;-63
2022/09/06 05:59:09;;;;;;;7.50;2.15;;;;;;;;;;3358956;42;20505;-64
2022/09/06 06:01:35;;;;;;;5.25;1.90;;;;;;;;;;3360783;42;20091;-63
2022/09/06 06:04:03;;;;;;;6.60;2.10;;;;;;;;;;3362672;42;20107;-64
2022/09/06 06:06:30;;;;;;;8.43;2.90;;;;;;;;;;3364375;42;20139;-66
2022/09/06 06:08:56;;;;;;;6.28;1.90;;;;;;;;;;3367003;42;20087;-65
2022/09/06 06:11:23;;;;;;;5.60;1.63;;;;;;;;;;3360176;42;20518;-65
2022/09/06 06:13:49;;;;;;;6.63;1.90;;;;;;;;;;3360102;42;20218;-65
2022/09/06 06:16:16;;;;;;;5.67;1.93;;;;;;;;;;3361070;42;20155;-65
2022/09/06 06:18:43;;;;;;;6.90;1.38;;;;;;;;;;3359027;42;20602;-65
2022/09/06 06:21:13;;;;;;;5.43;1.60;;;;;;;;;;3360391;42;20115;-65
2022/09/06 06:23:40;;;;;;;5.93;1.60;;;;;;;;;;3357417;42;20130;-64
2022/09/06 06:26:06;;;;;;;8.63;2.20;;;;;;;;;;3362572;42;20099;-64
2022/09/06 06:28:34;;;;;;;7.03;1.33;;;;;;;;;;3361257;42;20151;-64
2022/09/06 06:31:01;;;;;;;5.75;1.65;;;;;;;;;;3360926;42;20186;-64
2022/09/06 06:33:26;;;;;;;6.97;1.50;;;;;;;;;;3360971;42;20143;-63
2022/09/06 06:36:00;;;;;;;6.63;1.70;;;;;;;;;;3365679;42;20198;-64
2022/09/06 06:38:30;;;;;;;5.22;1.60;;;;;;;;;;3363032;42;20178;-64
2022/09/06 06:40:57;;;;;;;7.00;1.73;;;;;;;;;;3361479;42;20255;-63
2022/09/06 06:43:22;;;;;;;5.18;1.70;;;;;;;;;;3367121;42;20088;-63
2022/09/06 06:45:49;;;;;;;6.18;1.92;;;;;;;;;;3366992;42;20099;-63
2022/09/06 06:48:15;;;;;;;5.82;1.70;;;;;;;;;;3360913;42;20095;-65
2022/09/06 06:50:41;;;;;;;5.47;1.57;;;;;;;;;;3364262;42;20096;-63
2022/09/06 06:53:07;;;;;;;4.93;1.70;;;;;;;;;;3364677;42;20174;-65
2022/09/06 06:55:33;;;;;;;9.02;1.92;;;;;;;;;;3366688;42;20219;-64
2022/09/06 06:57:59;;;;;;;5.00;1.73;;;;;;;;;;3365804;42;20216;-67
2022/09/06 07:00:25;;;;;;;6.23;1.90;;;;;;;;;;3362815;42;20088;-64
2022/09/06 07:02:55;;;;;;;5.50;1.80;;;;;;;;;;3363230;42;20098;-64
2022/09/06 07:05:22;;;;;;;7.93;1.20;;;;;;;;;;3366741;42;20139;-63
2022/09/06 07:07:48;;;;;;;7.25;1.60;;;;;;;;;;3367826;42;20118;-64
2022/09/06 07:10:13;;;;;;;9.37;1.40;;;;;;;;;;3363208;42;20517;-65
2022/09/06 07:12:40;;;;;;;8.02;1.70;;;;;;;;;;3366175;42;20630;-65
2022/09/06 07:15:06;;;;;;;8.23;1.77;;;;;;;;;;3361994;42;20598;-67
2022/09/06 07:17:33;;;;;;;5.70;1.55;;;;;;;;;;3363820;42;20129;-65
2022/09/06 07:19:59;;;;;;;6.53;1.60;;;;;;;;;;3364321;42;20102;-66
2022/09/06 07:22:25;;;;;;;7.70;1.60;;;;;;;;;;3361407;42;20103;-65
2022/09/06 07:24:51;;;;;;;8.52;1.70;;;;;;;;;;3365330;42;20588;-66
2022/09/06 07:27:17;;;;;;;4.15;1.40;;;;;;;;;;3364253;42;20118;-65
2022/09/06 07:29:43;;;;;;;4.90;1.20;;;;;;;;;;3366824;42;20094;-66
2022/09/06 07:32:09;;;;;;;5.03;1.23;;;;;;;;;;3365322;42;20106;-66
2022/09/06 07:34:36;;;;;;;5.63;1.20;;;;;;;;;;3366815;42;20210;-67
2022/09/06 07:37:02;;;;;;;4.03;0.90;;;;;;;;;;3364160;42;20079;-66
2022/09/06 07:39:28;;;;;;;5.22;1.30;;;;;;;;;;3364524;42;20132;-64
2022/09/06 07:41:54;;;;;;;6.73;1.20;;;;;;;;;;3365709;42;20102;-64
2022/09/06 07:44:20;;;;;;;3.67;1.00;;;;;;;;;;3366563;42;20118;-65
2022/09/06 07:46:46;;;;;;;5.07;0.90;;;;;;;;;;3365364;42;20122;-66
2022/09/06 07:49:12;;;;;;;4.22;1.10;;;;;;;;;;3364624;42;20103;-67
2022/09/06 07:51:38;;;;;;;3.83;0.90;;;;;;;;;;3364122;42;20088;-65
2022/09/06 07:54:05;;;;;;;4.23;0.90;;;;;;;;;;3363901;42;20079;-66
2022/09/06 07:56:31;;;;;;;3.83;1.00;;;;;;;;;;3364231;42;20620;-64
2022/09/06 07:58:57;;;;;;;2.97;0.90;;;;;;;;;;3360848;42;20559;-65
2022/09/06 08:01:29;;;;;;;3.00;0.80;;;;;;;;;;3364104;42;20088;-64
2022/09/06 08:04:00;;;;;;;3.67;1.00;;;;;;;;;;3365537;42;20098;-65
2022/09/06 08:06:27;;;;;;;4.45;0.90;;;;;;;;;;3362470;42;20186;-64
2022/09/06 08:08:53;;;;;;;5.32;1.00;;;;;;;;;;3364495;42;20135;-65
2022/09/06 08:11:19;;;;;;;5.75;1.00;;;;;;;;;;3365659;42;20096;-64
2022/09/06 08:13:50;;;;;;;2.93;0.70;;;;;;;;;;3364099;42;20099;-66
2022/09/06 08:16:16;;;;;;;4.03;1.10;;;;;;;;;;3369170;42;20084;-62
2022/09/06 08:18:42;;;;;;;3.63;1.10;;;;;;;;;;3359011;42;20096;-63
2022/09/06 08:21:12;;;;;;;3.30;0.98;;;;;;;;;;3355693;42;20088;-62
2022/09/06 08:23:41;;;;;;;4.07;0.98;;;;;;;;;;3353549;42;20088;-64
2022/09/06 08:26:07;;;;;;;4.07;1.00;;;;;;;;;;3361334;42;20127;-63
2022/09/06 08:28:33;;;;;;;3.60;0.98;;;;;;;;;;3363887;42;20100;-63
2022/09/06 08:31:13;;;;;;;3.03;0.90;;;;;;;;;;3359704;42;20114;-64
2022/09/06 08:33:39;;;;;;;3.03;0.82;;;;;;;;;;3361038;42;20641;-63
2022/09/06 08:36:06;;;;;;;4.25;1.00;;;;;;;;;;3363880;42;20621;-63
2022/09/06 08:38:32;;;;;;;4.13;1.00;;;;;;;;;;3360685;42;20518;-63
2022/09/06 08:41:33;;;;;;;3.78;1.08;;;;;;;;;;3359871;42;20755;-66
2022/09/06 08:44:05;;;;;;;4.32;1.20;;;;;;;;;;3354463;42;20203;-63
2022/09/06 08:46:38;;;;;;;3.67;1.10;;;;;;;;;;3360794;42;20092;-64
2022/09/06 08:49:04;;;;;;;4.82;1.20;;;;;;;;;;3360447;42;20640;-65
2022/09/06 08:51:33;;;;;;;4.33;1.40;;;;;;;;;;3359050;42;20110;-66
2022/09/06 08:54:05;;;;;;;4.80;1.40;;;;;;;;;;3359920;42;20606;-64
2022/09/06 08:56:37;;;;;;;5.00;1.40;;;;;;;;;;3360023;42;20100;-64
2022/09/06 08:59:05;;;;;;;4.45;1.35;;;;;;;;;;3359713;42;20080;-64
2022/09/06 09:01:42;;;;;;;4.55;1.70;;;;;;;;;;3359710;42;20166;-63
2022/09/06 09:04:11;;;;;;;5.60;1.40;;;;;;;;;;3359866;42;20594;-65
2022/09/06 09:06:37;;;;;;;4.60;1.23;;;;;;;;;;3359787;42;20139;-63
2022/09/06 09:09:07;;;;;;;4.50;1.48;;;;;;;;;;3361510;42;20114;-64
2022/09/06 09:11:34;;;;;;;4.53;1.45;;;;;;;;;;3361190;42;20554;-65
2022/09/06 09:14:06;;;;;;;6.75;1.60;;;;;;;;;;3361586;42;20147;-57
2022/09/06 09:16:33;;;;;;;5.40;1.73;;;;;;;;;;3363025;42;20083;-64
2022/09/06 09:19:03;;;;;;;7.28;2.58;;;;;;;;;;3358627;42;20119;-65
2022/09/06 09:21:33;;;;;;;4.93;1.98;;;;;;;;;;3361187;42;20092;-64
2022/09/06 09:24:09;;;;;;;5.07;1.77;;;;;;;;;;3355961;42;20095;-64
2022/09/06 09:27:04;;;;;;;6.28;2.10;;;;;;;;;;3343641;42;20095;-68
2022/09/06 09:29:30;;;;;;;5.80;1.73;;;;;;;;;;3364738;42;20927;-65
2022/09/06 09:31:56;;;;;;;7.07;1.95;;;;;;;;;;3364390;42;20962;-64
2022/09/06 09:34:38;;;;;;;14.55;4.43;;;;;;;;;;3365694;42;20100;-63
2022/09/06 09:37:23;;;;;;;9.35;3.28;;;;;;;;;;3365887;42;20870;-65
2022/09/06 09:39:51;;;;;;;13.00;4.72;;;;;;;;;;3357916;42;20614;-64
2022/09/06 09:42:30;;;;;;;6.30;2.47;;;;;;;;;;3361381;42;20166;-62
2022/09/06 09:44:56;;;;;;;7.35;2.78;;;;;;;;;;3360999;42;20175;-65
2022/09/06 09:47:30;;;;;;;6.22;2.42;;;;;;;;;;3360162;42;20255;-65
2022/09/06 09:49:56;;;;;;;6.25;2.28;;;;;;;;;;3359824;42;20135;-65
2022/09/06 09:52:31;;;;;;;7.18;3.10;;;;;;;;;;3360793;42;20092;-65
2022/09/06 09:55:02;;;;;;;6.20;2.20;;;;;;;;;;3359603;42;20634;-64
2022/09/06 09:57:29;;;;;;;5.80;2.40;;;;;;;;;;3361712;42;20084;-64
2022/09/06 09:59:57;;;;;;;6.97;2.78;;;;;;;;;;3363635;42;20088;-67
2022/09/06 10:02:30;;;;;;;7.70;2.65;;;;;;;;;;3362980;42;20170;-63
2022/09/06 10:05:17;;;;;;;8.02;3.10;;;;;;;;;;3360849;42;20096;-62
2022/09/06 10:07:49;;;;;;;6.37;2.50;;;;;;;;;;3360624;42;21076;-63
2022/09/06 10:10:28;;;;;;;7.25;2.70;;;;;;;;;;3360736;42;20100;-65
2022/09/06 10:13:18;;;;;;;11.43;4.05;;;;;;;;;;3360422;42;20096;-64
2022/09/06 10:15:45;;;;;;;12.77;3.90;;;;;;;;;;3373040;42;20096;-65
2022/09/06 10:18:29;;;;;;;16.55;4.70;;;;;;;;;;3362828;42;20104;-64
2022/09/06 10:20:55;;;;;;;15.20;4.57;;;;;;;;;;3366255;42;20106;-64
2022/09/06 10:23:58;;;;;;;21.55;6.07;;;;;;;;;;3363407;42;20099;-65
2022/09/06 10:26:33;;;;;;;25.05;7.65;;;;;;;;;;3364356;42;20096;-65
2022/09/06 10:29:05;;;;;;;20.40;6.22;;;;;;;;;;3367677;42;20099;-64
2022/09/06 10:31:44;;;;;;;14.68;4.97;;;;;;;;;;3365963;42;20103;-61
2022/09/06 10:34:44;;;;;;;18.80;5.40;;;;;;;;;;3366154;42;20593;-65
2022/09/06 10:37:30;;;;;;;18.75;5.43;;;;;;;;;;3360030;42;20091;-64
2022/09/06 10:40:08;;;;;;;16.58;4.75;;;;;;;;;;3364846;42;20171;-63
2022/09/06 10:42:47;;;;;;;11.18;3.75;;;;;;;;;;3356149;42;20152;-66
2022/09/06 10:45:24;;;;;;;13.70;4.70;;;;;;;;;;3357149;42;20274;-64
2022/09/06 10:48:00;;;;;;;12.73;4.30;;;;;;;;;;3364779;42;20666;-63
2022/09/06 10:50:42;;;;;;;11.52;3.80;;;;;;;;;;3366359;42;20147;-63
2022/09/06 10:53:12;;;;;;;7.43;2.92;;;;;;;;;;3366082;42;20349;-64
2022/09/06 10:55:39;;;;;;;6.75;2.67;;;;;;;;;;3356171;42;20080;-63
2022/09/06 10:58:05;;;;;;;5.80;2.20;;;;;;;;;;3361813;42;20128;-63
2022/09/06 11:00:34;;;;;;;6.93;2.70;;;;;;;;;;3363372;42;20094;-63
2022/09/06 11:03:11;;;;;;;5.88;2.40;;;;;;;;;;3353715;42;20170;-62
2022/09/06 11:05:42;;;;;;;6.32;2.65;;;;;;;;;;3350314;42;20619;-64
2022/09/06 11:08:51;;;;;;;7.43;2.85;;;;;;;;;;3357777;42;20096;-63
2022/09/06 11:11:29;;;;;;;8.00;2.65;;;;;;;;;;3354974;42;20155;-63
2022/09/06 11:13:55;;;;;;;6.10;2.20;;;;;;;;;;3359216;42;20099;-64
2022/09/06 11:16:23;;;;;;;6.28;2.10;;;;;;;;;;3365587;42;20491;-66
2022/09/06 11:18:55;;;;;;;5.65;2.10;;;;;;;;;;3364942;42;20615;-64
2022/09/06 11:21:49;;;;;;;5.55;2.05;;;;;;;;;;3368217;42;20149;-62
2022/09/06 11:24:34;;;;;;;5.93;1.92;;;;;;;;;;3362861;42;20087;-62
2022/09/06 11:27:09;;;;;;;5.37;1.97;;;;;;;;;;3361138;42;20111;-62
2022/09/06 11:29:35;;;;;;;5.93;2.30;;;;;;;;;;3359594;42;20106;-61
2022/09/06 11:32:02;;;;;;;5.68;2.22;;;;;;;;;;3351751;42;20100;-62
2022/09/06 11:34:32;;;;;;;5.82;2.03;;;;;;;;;;3359563;42;20600;-64
2022/09/06 11:37:06;;;;;;;6.53;2.23;;;;;;;;;;3358633;42;20185;-62
2022/09/06 11:39:38;;;;;;;7.78;2.55;;;;;;;;;;3359894;42;20164;-62
2022/09/06 11:42:49;;;;;;;6.38;2.30;;;;;;;;;;3359715;42;20131;-62
2022/09/06 11:45:20;;;;;;;5.60;2.28;;;;;;;;;;3347120;42;20103;-64
2022/09/06 11:47:52;;;;;;;5.75;2.45;;;;;;;;;;3360905;42;20131;-62
2022/09/06 11:50:21;;;;;;;5.70;1.87;;;;;;;;;;3363934;42;20107;-62
2022/09/06 11:53:05;;;;;;;5.32;1.77;;;;;;;;;;3359054;42;20169;-61
2022/09/06 11:55:45;;;;;;;5.68;2.33;;;;;;;;;;3360494;42;20955;-63
2022/09/06 11:58:41;;;;;;;4.93;1.60;;;;;;;;;;3357650;42;20102;-64
2022/09/06 12:01:12;;;;;;;5.70;1.80;;;;;;;;;;3350735;42;20135;-65
2022/09/06 12:03:47;;;;;;;4.63;1.50;;;;;;;;;;3360449;42;20158;-64
2022/09/06 12:06:30;;;;;;;5.45;1.70;;;;;;;;;;3359735;42;20139;-67
2022/09/06 12:08:56;;;;;;;4.85;1.67;;;;;;;;;;3360211;42;20084;-62
2022/09/06 12:11:32;;;;;;;5.72;1.80;;;;;;;;;;3358686;42;20072;-63
2022/09/06 12:14:20;;;;;;;4.70;1.58;;;;;;;;;;3359919;42;20088;-66
2022/09/06 12:17:10;;;;;;;5.33;1.80;;;;;;;;;;3368374;42;20145;-63
2022/09/06 12:19:45;;;;;;;4.68;1.35;;;;;;;;;;3359808;42;20091;-62
2022/09/06 12:22:47;;;;;;;4.47;1.30;;;;;;;;;;3358084;42;20084;-63
2022/09/06 12:25:39;;;;;;;4.18;1.30;;;;;;;;;;3348462;42;20564;-61
2022/09/06 12:28:08;;;;;;;4.22;1.40;;;;;;;;;;3359846;42;20096;-63
2022/09/06 12:30:43;;;;;;;6.40;2.47;;;;;;;;;;3359514;42;20083;-62
2022/09/06 12:33:21;;;;;;;5.45;1.48;;;;;;;;;;3358161;42;20103;-63
2022/09/06 12:35:47;;;;;;;4.72;1.30;;;;;;;;;;3360663;42;20170;-63
2022/09/06 12:38:14;;;;;;;5.07;1.63;;;;;;;;;;3362318;42;20187;-64
2022/09/06 12:40:44;;;;;;;4.70;1.60;;;;;;;;;;3358743;42;20091;-64
2022/09/06 12:43:11;;;;;;;5.10;1.80;;;;;;;;;;3359392;42;20153;-63
2022/09/06 12:45:44;;;;;;;6.40;1.90;;;;;;;;;;3362352;42;20091;-64
2022/09/06 12:48:12;;;;;;;6.85;1.80;;;;;;;;;;3360619;42;20092;-61
2022/09/06 12:50:39;;;;;;;5.05;1.73;;;;;;;;;;3358870;42;20139;-63
2022/09/06 12:53:25;;;;;;;5.80;1.67;;;;;;;;;;3360716;42;20099;-62
2022/09/06 12:56:05;;;;;;;5.50;1.95;;;;;;;;;;3360379;42;20095;-63
2022/09/06 12:58:31;;;;;;;5.65;1.95;;;;;;;;;;3358789;42;20174;-64
2022/09/06 13:01:02;;;;;;;7.53;2.00;;;;;;;;;;3358803;42;20098;-62
2022/09/06 13:03:36;;;;;;;4.90;1.48;;;;;;;;;;3362371;42;20521;-62
2022/09/06 13:06:04;;;;;;;5.37;1.47;;;;;;;;;;3360931;42;20096;-64
2022/09/06 13:08:46;;;;;;;7.28;1.75;;;;;;;;;;3353813;42;20084;-63
2022/09/06 13:11:13;;;;;;;4.60;1.58;;;;;;;;;;3359071;42;20115;-65
2022/09/06 13:13:50;;;;;;;4.60;1.58;;;;;;;;;;3364100;42;20100;-63
2022/09/06 13:16:24;;;;;;;4.80;1.50;;;;;;;;;;3363190;42;20103;-63
2022/09/06 13:18:50;;;;;;;5.47;1.60;;;;;;;;;;3357005;42;20083;-63
2022/09/06 13:21:30;;;;;;;5.93;1.75;;;;;;;;;;3364363;42;20567;-64
2022/09/06 13:23:57;;;;;;;4.60;1.40;;;;;;;;;;3365032;42;20080;-63
2022/09/06 13:26:33;;;;;;;4.63;1.52;;;;;;;;;;3364873;42;20109;-64
2022/09/06 13:29:11;;;;;;;4.93;1.80;;;;;;;;;;3365289;42;20554;-62
2022/09/06 13:31:37;;;;;;;4.60;1.63;;;;;;;;;;3362258;42;20096;-64
2022/09/06 13:34:03;;;;;;;5.80;1.52;;;;;;;;;;3354070;42;20110;-66
2022/09/06 13:36:32;;;;;;;6.43;2.00;;;;;;;;;;3351840;42;20103;-63
2022/09/06 13:38:59;;;;;;;9.02;3.08;;;;;;;;;;3361455;42;20143;-63
2022/09/06 13:41:25;;;;;;;14.10;5.43;;;;;;;;;;3365668;42;20163;-66
2022/09/06 13:44:10;;;;;;;8.18;2.20;;;;;;;;;;3365750;42;20087;-68
2022/09/06 13:46:36;;;;;;;6.05;2.08;;;;;;;;;;3361940;42;20506;-65
2022/09/06 13:49:02;;;;;;;7.03;1.65;;;;;;;;;;3364355;42;20598;-65
2022/09/06 13:51:28;;;;;;;7.27;1.93;;;;;;;;;;3363574;42;20102;-65
2022/09/06 13:54:05;;;;;;;8.37;2.10;;;;;;;;;;3365485;42;20325;-67
2022/09/06 13:56:31;;;;;;;5.22;1.45;;;;;;;;;;3365257;42;20092;-64
2022/09/06 13:58:57;;;;;;;8.20;1.77;;;;;;;;;;3363790;42;20123;-65
2022/09/06 14:01:23;;;;;;;5.60;2.22;;;;;;;;;;3364757;42;20122;-65
2022/09/06 14:03:49;;;;;;;5.77;1.90;;;;;;;;;;3365006;42;20099;-64
2022/09/06 14:06:15;;;;;;;7.07;1.50;;;;;;;;;;3363423;42;20095;-65
2022/09/06 14:08:41;;;;;;;5.70;1.80;;;;;;;;;;3363583;42;20140;-65
2022/09/06 14:11:08;;;;;;;5.50;1.80;;;;;;;;;;3363640;42;20138;-65
2022/09/06 14:13:34;;;;;;;7.07;1.80;;;;;;;;;;3356155;42;20143;-64
2022/09/06 14:16:00;;;;;;;14.45;6.45;;;;;;;;;;3364477;42;20191;-63
2022/09/06 14:18:26;;;;;;;9.38;2.50;;;;;;;;;;3364789;42;20100;-64
2022/09/06 14:20:52;;;;;;;11.82;2.13;;;;;;;;;;3364527;42;20106;-64
2022/09/06 14:23:19;;;;;;;10.13;4.50;;;;;;;;;;3364915;42;20106;-59
2022/09/06 14:25:45;;;;;;;7.68;2.17;;;;;;;;;;3364045;42;20210;-64
2022/09/06 14:28:11;;;;;;;11.57;3.28;;;;;;;;;;3364145;42;20238;-65
2022/09/06 14:30:37;;;;;;;5.70;2.20;;;;;;;;;;3363252;42;20219;-65
2022/09/06 14:33:03;;;;;;;5.30;1.80;;;;;;;;;;3365486;42;20142;-66
2022/09/06 14:35:33;;;;;;;8.33;2.87;;;;;;;;;;3355335;42;20084;-64
2022/09/06 14:37:59;;;;;;;11.68;5.60;;;;;;;;;;3356912;42;20110;-64
2022/09/06 14:40:25;;;;;;;8.90;2.55;;;;;;;;;;3364839;42;20663;-66
2022/09/06 14:42:51;;;;;;;7.05;2.38;;;;;;;;;;3361832;42;20099;-66
2022/09/06 14:45:18;;;;;;;5.60;2.13;;;;;;;;;;3358729;42;20084;-62
2022/09/06 14:47:44;;;;;;;10.83;4.13;;;;;;;;;;3360410;42;20447;-66
2022/09/06 14:50:10;;;;;;;9.98;3.17;;;;;;;;;;3363045;42;20096;-63
2022/09/06 14:52:36;;;;;;;8.57;2.80;;;;;;;;;;3363730;42;20183;-65
2022/09/06 14:55:02;;;;;;;6.93;2.60;;;;;;;;;;3363920;42;20096;-65
2022/09/06 14:57:28;;;;;;;9.13;2.40;;;;;;;;;;3364889;42;20159;-66
2022/09/06 14:59:55;;;;;;;6.23;2.07;;;;;;;;;;3362825;42;20142;-65